createdAt,value
2018-04-15T00:02:12.136Z,99.70
2018-04-15T00:04:40.388Z,99.90
2018-04-15T00:07:07.878Z,99.90
2018-04-15T00:09:35.381Z,99.80
2018-04-15T00:12:02.891Z,99.80
2018-04-15T00:14:30.366Z,99.70
2018-04-15T00:16:57.845Z,99.60
2018-04-15T00:19:25.329Z,99.30
2018-04-15T00:21:52.795Z,99.40
2018-04-15T00:24:20.275Z,99.50
2018-04-15T00:26:48.493Z,99.80
2018-04-15T00:29:15.987Z,99.80
2018-04-15T00:31:43.471Z,99.90
2018-04-15T00:34:10.953Z,99.90
2018-04-15T00:36:38.461Z,99.90
2018-04-15T00:39:05.981Z,99.90
2018-04-15T00:41:33.425Z,99.90
2018-04-15T00:44:00.902Z,99.90
2018-04-15T00:46:28.344Z,99.90
2018-04-15T00:48:55.840Z,99.90
2018-04-15T00:51:23.349Z,99.90
2018-04-15T00:54:02.756Z,99.90
2018-04-15T00:56:30.979Z,99.90
2018-04-15T00:58:58.435Z,99.90
2018-04-15T01:01:25.932Z,99.90
2018-04-15T01:03:53.425Z,99.90
2018-04-15T01:06:20.909Z,99.90
2018-04-15T01:08:48.406Z,99.90
2018-04-15T01:11:15.868Z,99.90
2018-04-15T01:13:43.333Z,99.90
2018-04-15T01:16:11.588Z,99.90
2018-04-15T01:18:39.065Z,99.90
2018-04-15T01:21:06.539Z,99.90
2018-04-15T01:23:34.009Z,99.90
2018-04-15T01:26:01.497Z,99.90
2018-04-15T01:28:28.951Z,99.90
2018-04-15T01:30:56.441Z,99.90
2018-04-15T01:33:23.907Z,99.90
2018-04-15T01:35:51.374Z,99.90
2018-04-15T01:38:19.623Z,99.90
2018-04-15T01:40:47.085Z,99.90
2018-04-15T01:43:14.565Z,99.90
2018-04-15T01:45:42.813Z,99.90
2018-04-15T01:48:10.284Z,99.90
2018-04-15T01:50:37.762Z,99.90
2018-04-15T01:53:05.990Z,99.90
2018-04-15T01:55:33.462Z,99.90
2018-04-15T01:58:00.940Z,99.90
2018-04-15T02:00:29.187Z,99.90
2018-04-15T02:02:56.662Z,99.90
2018-04-15T02:05:24.133Z,99.90
2018-04-15T02:07:51.614Z,99.90
2018-04-15T02:10:19.069Z,99.90
2018-04-15T02:12:46.545Z,99.90
2018-04-15T02:15:14.034Z,99.90
2018-04-15T02:17:41.489Z,99.90
2018-04-15T02:20:08.973Z,99.90
2018-04-15T02:22:37.203Z,99.90
2018-04-15T02:25:04.687Z,99.90
2018-04-15T02:27:33.690Z,99.90
2018-04-15T02:30:01.159Z,99.90
2018-04-15T02:32:28.705Z,99.90
2018-04-15T02:34:56.935Z,99.90
2018-04-15T02:37:24.387Z,99.90
2018-04-15T02:39:52.041Z,99.90
2018-04-15T02:42:19.511Z,99.90
2018-04-15T02:44:47.014Z,99.90
2018-04-15T02:47:14.483Z,99.90
2018-04-15T02:49:42.700Z,99.90
2018-04-15T02:52:10.183Z,99.90
2018-04-15T02:54:37.651Z,99.90
2018-04-15T02:57:05.116Z,99.90
2018-04-15T02:59:32.585Z,99.90
2018-04-15T03:02:00.826Z,99.90
2018-04-15T03:04:28.309Z,99.90
2018-04-15T03:06:56.545Z,99.90
2018-04-15T03:09:24.058Z,99.90
2018-04-15T03:11:52.278Z,99.90
2018-04-15T03:14:19.759Z,99.90
2018-04-15T03:16:47.242Z,99.90
2018-04-15T03:19:15.490Z,99.90
2018-04-15T03:21:42.952Z,99.90
2018-04-15T03:24:10.422Z,99.90
2018-04-15T03:26:37.861Z,99.90
2018-04-15T03:29:05.349Z,99.90
2018-04-15T03:31:33.559Z,99.90
2018-04-15T03:34:01.062Z,99.90
2018-04-15T03:36:28.513Z,99.90
2018-04-15T03:38:55.977Z,99.90
2018-04-15T03:41:23.480Z,99.90
2018-04-15T03:43:50.957Z,99.90
2018-04-15T03:46:18.410Z,99.90
2018-04-15T03:48:46.681Z,99.90
2018-04-15T03:51:14.146Z,99.90
2018-04-15T03:53:41.608Z,99.90
2018-04-15T03:56:09.095Z,99.90
2018-04-15T03:58:36.588Z,99.90
2018-04-15T04:01:04.059Z,99.90
2018-04-15T04:03:31.526Z,99.90
2018-04-15T04:05:59.011Z,99.90
2018-04-15T04:08:26.468Z,99.90
2018-04-15T04:10:53.956Z,99.90
2018-04-15T04:13:22.198Z,99.90
2018-04-15T04:15:49.662Z,99.90
2018-04-15T04:18:28.875Z,99.90
2018-04-15T04:21:08.201Z,99.90
2018-04-15T04:23:47.599Z,99.90
2018-04-15T04:26:15.090Z,99.90
2018-04-15T04:28:42.596Z,99.90
2018-04-15T04:31:10.065Z,99.90
2018-04-15T04:33:38.296Z,99.90
2018-04-15T04:36:05.768Z,99.90
2018-04-15T04:38:33.232Z,99.90
2018-04-15T04:41:00.719Z,99.90
2018-04-15T04:43:28.206Z,99.90
2018-04-15T04:45:55.722Z,99.90
2018-04-15T04:48:24.226Z,99.90
2018-04-15T04:50:51.700Z,99.90
2018-04-15T04:53:19.193Z,99.90
2018-04-15T04:55:46.660Z,99.90
2018-04-15T04:58:14.136Z,99.90
2018-04-15T05:00:41.596Z,99.90
2018-04-15T05:03:09.082Z,99.90
2018-04-15T05:05:36.552Z,99.90
2018-04-15T05:08:04.005Z,99.90
2018-04-15T05:10:31.511Z,99.90
2018-04-15T05:12:58.981Z,99.90
2018-04-15T05:15:27.192Z,99.90
2018-04-15T05:17:54.687Z,99.90
2018-04-15T05:20:22.154Z,99.90
2018-04-15T05:22:49.627Z,99.90
2018-04-15T05:25:17.869Z,99.90
2018-04-15T05:27:45.333Z,99.90
2018-04-15T05:30:12.822Z,99.90
2018-04-15T05:32:40.301Z,99.90
2018-04-15T05:35:07.779Z,99.90
2018-04-15T05:37:35.289Z,99.90
2018-04-15T05:40:02.711Z,99.90
2018-04-15T05:42:30.195Z,99.90
2018-04-15T05:44:57.682Z,99.90
2018-04-15T05:47:25.176Z,99.90
2018-04-15T05:49:52.640Z,99.90
2018-04-15T05:52:20.113Z,99.90
2018-04-15T05:54:47.601Z,99.90
2018-04-15T05:57:15.082Z,99.90
2018-04-15T05:59:42.586Z,99.90
2018-04-15T06:02:10.066Z,99.90
2018-04-15T06:04:38.334Z,99.90
2018-04-15T06:07:06.589Z,99.90
2018-04-15T06:09:34.063Z,99.90
2018-04-15T06:12:01.563Z,99.90
2018-04-15T06:14:29.047Z,99.90
2018-04-15T06:16:56.546Z,99.90
2018-04-15T06:19:24.024Z,99.90
2018-04-15T06:21:51.482Z,99.90
2018-04-15T06:24:18.963Z,99.90
2018-04-15T06:26:46.434Z,99.90
2018-04-15T06:29:13.926Z,99.90
2018-04-15T06:31:41.405Z,99.90
2018-04-15T06:34:08.882Z,99.90
2018-04-15T06:36:36.373Z,99.90
2018-04-15T06:39:03.836Z,99.90
2018-04-15T06:41:31.323Z,99.90
2018-04-15T06:43:59.562Z,99.90
2018-04-15T06:46:27.020Z,99.90
2018-04-15T06:48:54.488Z,99.90
2018-04-15T06:51:21.965Z,99.90
2018-04-15T06:53:50.255Z,99.90
2018-04-15T06:56:17.720Z,99.90
2018-04-15T06:58:45.195Z,99.90
2018-04-15T07:01:12.692Z,99.90
2018-04-15T07:03:40.191Z,99.90
2018-04-15T07:06:07.734Z,99.90
2018-04-15T07:08:35.232Z,99.90
2018-04-15T07:11:02.693Z,99.90
2018-04-15T07:13:30.270Z,99.90
2018-04-15T07:15:57.795Z,99.90
2018-04-15T07:18:25.347Z,99.90
2018-04-15T07:20:52.863Z,99.90
2018-04-15T07:23:20.353Z,99.90
2018-04-15T07:25:47.865Z,99.90
2018-04-15T07:28:15.359Z,99.90
2018-04-15T07:30:43.627Z,99.90
2018-04-15T07:33:11.847Z,99.90
2018-04-15T07:35:39.340Z,99.90
2018-04-15T07:38:06.820Z,98.60
2018-04-15T07:40:35.099Z,97.90
2018-04-15T07:43:02.562Z,97.90
2018-04-15T07:45:30.808Z,96.90
2018-04-15T07:47:58.301Z,96.90
2018-04-15T07:50:25.949Z,95.70
2018-04-15T07:52:53.445Z,95.70
2018-04-15T07:55:21.008Z,94.40
2018-04-15T07:57:48.483Z,91.80
2018-04-15T08:00:15.971Z,90.60
2018-04-15T08:02:43.492Z,91.90
2018-04-15T08:05:10.970Z,92.30
2018-04-15T08:07:38.464Z,92.80
2018-04-15T08:10:06.731Z,93.70
2018-04-15T08:12:34.221Z,93.70
2018-04-15T08:15:01.703Z,92.80
2018-04-15T08:17:29.640Z,92.70
2018-04-15T08:19:57.265Z,94.20
2018-04-15T08:22:24.790Z,95.20
2018-04-15T08:24:52.274Z,95.50
2018-04-15T08:27:19.754Z,96.60
2018-04-15T08:29:48.023Z,97.00
2018-04-15T08:32:16.277Z,96.20
2018-04-15T08:34:43.777Z,96.20
2018-04-15T08:37:11.296Z,92.70
2018-04-15T08:39:38.801Z,94.10
2018-04-15T08:42:06.293Z,94.50
2018-04-15T08:44:33.788Z,94.50
2018-04-15T08:47:02.032Z,93.30
2018-04-15T08:49:29.518Z,93.30
2018-04-15T08:51:57.023Z,93.30
2018-04-15T08:54:24.528Z,93.20
2018-04-15T08:56:52.027Z,94.30
2018-04-15T08:59:19.537Z,92.80
2018-04-15T09:01:47.042Z,93.10
2018-04-15T09:04:14.709Z,94.90
2018-04-15T09:06:42.212Z,94.10
2018-04-15T09:09:09.725Z,92.60
2018-04-15T09:11:37.983Z,91.00
2018-04-15T09:14:05.469Z,91.00
2018-04-15T09:16:32.968Z,92.30
2018-04-15T09:19:00.700Z,92.00
2018-04-15T09:21:28.183Z,91.60
2018-04-15T09:23:55.690Z,90.00
2018-04-15T09:26:23.167Z,90.10
2018-04-15T09:28:50.657Z,89.90
2018-04-15T09:31:18.119Z,88.90
2018-04-15T09:33:45.618Z,87.10
2018-04-15T09:36:13.101Z,87.80
2018-04-15T09:38:40.572Z,88.10
2018-04-15T09:41:08.074Z,87.90
2018-04-15T09:43:36.317Z,86.80
2018-04-15T09:46:03.795Z,86.60
2018-04-15T09:48:32.076Z,87.80
2018-04-15T09:51:00.331Z,85.20
2018-04-15T09:53:27.826Z,85.10
2018-04-15T09:55:55.300Z,87.10
2018-04-15T09:58:22.791Z,87.10
2018-04-15T10:00:50.307Z,86.00
2018-04-15T10:03:17.813Z,87.10
2018-04-15T10:05:45.297Z,87.20
2018-04-15T10:08:13.561Z,88.10
2018-04-15T10:10:41.070Z,87.90
2018-04-15T10:13:08.628Z,88.90
2018-04-15T10:15:36.115Z,87.80
2018-04-15T10:18:03.651Z,87.10
2018-04-15T10:20:31.131Z,87.80
2018-04-15T10:22:58.636Z,87.60
2018-04-15T10:25:26.125Z,90.50
2018-04-15T10:27:53.603Z,89.40
2018-04-15T10:30:21.122Z,90.00
2018-04-15T10:32:48.626Z,85.70
2018-04-15T10:35:16.143Z,83.50
2018-04-15T10:37:43.611Z,84.80
2018-04-15T10:40:11.117Z,86.60
2018-04-15T10:42:38.630Z,90.60
2018-04-15T10:45:06.141Z,88.50
2018-04-15T10:47:34.400Z,82.70
2018-04-15T10:50:01.902Z,82.70
2018-04-15T10:52:29.402Z,88.20
2018-04-15T10:54:56.933Z,90.30
2018-04-15T10:57:24.417Z,86.40
2018-04-15T10:59:51.951Z,84.40
2018-04-15T11:02:20.176Z,83.50
2018-04-15T11:04:48.450Z,82.80
2018-04-15T11:07:16.739Z,83.70
2018-04-15T11:09:44.230Z,83.70
2018-04-15T11:12:11.730Z,79.80
2018-04-15T11:14:39.345Z,78.20
2018-04-15T11:17:07.111Z,77.00
2018-04-15T11:19:34.604Z,76.20
2018-04-15T11:22:02.680Z,75.30
2018-04-15T11:24:30.167Z,72.90
2018-04-15T11:26:57.676Z,73.40
2018-04-15T11:29:25.224Z,70.50
2018-04-15T11:31:52.714Z,71.10
2018-04-15T11:34:20.206Z,72.30
2018-04-15T11:36:47.710Z,72.50
2018-04-15T11:39:15.208Z,74.20
2018-04-15T11:41:42.694Z,74.50
2018-04-15T11:44:10.225Z,76.70
2018-04-15T11:46:38.455Z,75.60
2018-04-15T11:49:06.691Z,78.20
2018-04-15T11:51:34.239Z,78.00
2018-04-15T11:54:01.677Z,73.70
2018-04-15T11:56:29.184Z,76.80
2018-04-15T11:58:56.683Z,74.70
2018-04-15T12:01:24.154Z,74.20
2018-04-15T12:03:51.648Z,74.20
2018-04-15T12:06:19.115Z,73.10
2018-04-15T12:08:46.602Z,72.10
2018-04-15T12:11:14.074Z,72.80
2018-04-15T12:13:41.551Z,78.70
2018-04-15T12:16:09.800Z,76.50
2018-04-15T12:18:37.267Z,76.40
2018-04-15T12:21:04.742Z,75.80
2018-04-15T12:23:32.994Z,75.00
2018-04-15T12:26:00.484Z,75.00
2018-04-15T12:28:28.954Z,74.20
2018-04-15T12:30:57.197Z,73.40
2018-04-15T12:33:24.674Z,73.30
2018-04-15T12:35:52.189Z,73.90
2018-04-15T12:38:20.416Z,72.70
2018-04-15T12:40:48.658Z,72.60
2018-04-15T12:43:16.147Z,72.50
2018-04-15T12:45:43.668Z,70.70
2018-04-15T12:48:11.149Z,70.00
2018-04-15T12:50:38.648Z,70.00
2018-04-15T12:53:06.122Z,72.00
2018-04-15T12:55:33.597Z,74.60
2018-04-15T12:58:01.096Z,68.10
2018-04-15T13:00:28.577Z,69.30
2018-04-15T13:02:56.054Z,68.10
2018-04-15T13:05:23.563Z,67.80
2018-04-15T13:07:51.803Z,61.00
2018-04-15T13:10:19.302Z,61.00
2018-04-15T13:12:47.571Z,58.40
2018-04-15T13:15:15.032Z,58.30
2018-04-15T13:17:43.406Z,61.60
2018-04-15T13:20:11.676Z,64.80
2018-04-15T13:22:39.156Z,64.70
2018-04-15T13:25:07.448Z,65.00
2018-04-15T13:27:34.965Z,64.80
2018-04-15T13:30:02.472Z,64.10
2018-04-15T13:32:29.994Z,63.30
2018-04-15T13:34:58.237Z,63.30
2018-04-15T13:37:25.829Z,63.20
2018-04-15T13:39:54.077Z,61.60
2018-04-15T13:42:21.581Z,61.50
2018-04-15T13:44:49.810Z,62.40
2018-04-15T13:47:17.301Z,62.30
2018-04-15T13:49:45.573Z,61.60
2018-04-15T13:52:13.823Z,63.80
2018-04-15T13:54:41.332Z,63.60
2018-04-15T13:57:08.806Z,59.40
2018-04-15T13:59:36.274Z,56.80
2018-04-15T14:02:03.800Z,59.40
2018-04-15T14:04:31.290Z,60.90
2018-04-15T14:06:58.794Z,61.00
2018-04-15T14:09:26.253Z,58.60
2018-04-15T14:11:54.569Z,61.10
2018-04-15T14:14:22.038Z,61.10
2018-04-15T14:16:49.538Z,61.20
2018-04-15T14:19:17.019Z,64.70
2018-04-15T14:21:45.277Z,67.40
2018-04-15T14:24:14.048Z,70.70
2018-04-15T14:26:41.528Z,70.70
2018-04-15T14:29:09.779Z,70.70
2018-04-15T14:31:37.280Z,70.60
2018-04-15T14:34:04.789Z,69.30
2018-04-15T14:36:32.254Z,67.90
2018-04-15T14:38:59.757Z,69.80
2018-04-15T14:41:27.227Z,69.00
2018-04-15T14:43:54.718Z,67.30
2018-04-15T14:46:22.205Z,68.70
2018-04-15T14:48:50.453Z,70.10
2018-04-15T14:51:17.972Z,70.00
2018-04-15T14:53:45.472Z,66.00
2018-04-15T14:56:12.996Z,64.10
2018-04-15T14:58:40.478Z,66.70
2018-04-15T15:01:07.972Z,65.90
2018-04-15T15:03:36.215Z,67.20
2018-04-15T15:06:03.692Z,67.40
2018-04-15T15:08:31.181Z,69.00
2018-04-15T15:10:58.666Z,69.40
2018-04-15T15:13:26.177Z,69.50
2018-04-15T15:15:53.656Z,71.30
2018-04-15T15:18:21.123Z,71.40
2018-04-15T15:20:48.623Z,72.00
2018-04-15T15:23:16.088Z,73.90
2018-04-15T15:25:43.565Z,74.90
2018-04-15T15:28:11.070Z,74.00
2018-04-15T15:30:38.565Z,72.90
2018-04-15T15:33:06.077Z,71.60
2018-04-15T15:35:33.875Z,70.70
2018-04-15T15:38:01.477Z,68.60
2018-04-15T15:40:28.974Z,67.90
2018-04-15T15:42:56.454Z,67.70
2018-04-15T15:45:23.957Z,67.30
2018-04-15T15:47:51.434Z,67.70
2018-04-15T15:50:18.928Z,69.90
2018-04-15T15:52:46.434Z,70.60
2018-04-15T15:55:13.900Z,71.20
2018-04-15T15:57:41.437Z,71.70
2018-04-15T16:00:09.778Z,70.70
2018-04-15T16:02:37.253Z,72.30
2018-04-15T16:05:05.517Z,73.00
2018-04-15T16:07:33.037Z,72.90
2018-04-15T16:10:00.523Z,74.00
2018-04-15T16:12:27.994Z,74.90
2018-04-15T16:14:55.524Z,74.60
2018-04-15T16:17:23.047Z,74.90
2018-04-15T16:19:50.534Z,74.70
2018-04-15T16:22:18.035Z,75.60
2018-04-15T16:24:46.287Z,74.80
2018-04-15T16:27:13.761Z,74.70
2018-04-15T16:29:41.246Z,74.70
2018-04-15T16:32:08.738Z,76.40
2018-04-15T16:34:36.265Z,77.80
2018-04-15T16:37:03.770Z,77.20
2018-04-15T16:39:31.240Z,77.20
2018-04-15T16:41:58.715Z,77.10
2018-04-15T16:44:26.964Z,76.70
2018-04-15T16:46:54.433Z,76.60
2018-04-15T16:49:21.964Z,76.60
2018-04-15T16:51:49.463Z,77.00
2018-04-15T16:54:16.937Z,77.10
2018-04-15T16:56:45.208Z,79.40
2018-04-15T16:59:13.441Z,79.60
2018-04-15T17:01:40.966Z,79.60
2018-04-15T17:04:08.440Z,79.40
2018-04-15T17:06:35.917Z,80.20
2018-04-15T17:09:03.442Z,80.80
2018-04-15T17:11:30.936Z,80.30
2018-04-15T17:13:58.461Z,79.80
2018-04-15T17:16:25.996Z,81.90
2018-04-15T17:18:53.518Z,81.50
2018-04-15T17:21:21.041Z,81.60
2018-04-15T17:23:48.533Z,81.40
2018-04-15T17:26:16.038Z,81.60
2018-04-15T17:28:43.546Z,82.00
2018-04-15T17:31:11.043Z,81.80
2018-04-15T17:33:38.555Z,81.40
2018-04-15T17:36:06.010Z,80.90
2018-04-15T17:38:33.514Z,81.30
2018-04-15T17:41:01.775Z,81.50
2018-04-15T17:43:29.266Z,81.50
2018-04-15T17:45:56.829Z,82.00
2018-04-15T17:48:24.274Z,82.50
2018-04-15T17:50:51.762Z,82.10
2018-04-15T17:53:19.271Z,82.20
2018-04-15T17:55:46.758Z,83.80
2018-04-15T17:58:14.254Z,84.60
2018-04-15T18:00:41.742Z,84.30
2018-04-15T18:03:09.248Z,84.80
2018-04-15T18:05:36.759Z,85.60
2018-04-15T18:08:05.002Z,86.80
2018-04-15T18:10:32.540Z,86.70
2018-04-15T18:13:00.022Z,87.60
2018-04-15T18:15:27.557Z,87.30
2018-04-15T18:17:54.982Z,87.80
2018-04-15T18:20:22.492Z,88.50
2018-04-15T18:22:49.998Z,89.20
2018-04-15T18:25:17.488Z,88.40
2018-04-15T18:27:45.044Z,88.30
2018-04-15T18:30:12.539Z,88.90
2018-04-15T18:32:40.088Z,88.70
2018-04-15T18:35:07.603Z,89.20
2018-04-15T18:37:35.119Z,90.20
2018-04-15T18:40:03.400Z,90.70
2018-04-15T18:42:31.656Z,89.90
2018-04-15T18:44:59.124Z,89.80
2018-04-15T18:47:26.652Z,89.00
2018-04-15T18:49:54.155Z,88.70
2018-04-15T18:52:21.671Z,88.90
2018-04-15T18:54:49.196Z,89.30
2018-04-15T18:57:16.719Z,89.50
2018-04-15T18:59:44.286Z,90.10
2018-04-15T19:02:12.648Z,89.90
2018-04-15T19:04:40.188Z,89.70
2018-04-15T19:07:07.690Z,89.20
2018-04-15T19:09:35.237Z,89.10
2018-04-15T19:12:03.506Z,89.30
2018-04-15T19:14:31.780Z,89.40
2018-04-15T19:16:59.303Z,89.40
2018-04-15T19:19:26.845Z,90.50
2018-04-15T19:21:54.319Z,91.50
2018-04-15T19:24:21.809Z,92.20
2018-04-15T19:26:49.904Z,93.00
2018-04-15T19:29:17.576Z,93.30
2018-04-15T19:31:45.863Z,93.10
2018-04-15T19:34:13.459Z,93.10
2018-04-15T19:36:41.001Z,93.50
2018-04-15T19:39:08.471Z,94.40
2018-04-15T19:41:36.010Z,95.00
2018-04-15T19:44:03.487Z,95.30
2018-04-15T19:46:31.000Z,95.70
2018-04-15T19:48:58.586Z,96.00
2018-04-15T19:51:26.054Z,96.30
2018-04-15T19:53:53.553Z,96.90
2018-04-15T19:56:21.818Z,97.30
2018-04-15T19:58:49.302Z,97.60
2018-04-15T20:01:17.569Z,97.40
2018-04-15T20:03:45.042Z,97.40
2018-04-15T20:06:13.299Z,97.40
2018-04-15T20:08:41.608Z,97.40
2018-04-15T20:11:09.149Z,97.40
2018-04-15T20:13:36.637Z,97.30
2018-04-15T20:16:04.133Z,97.50
2018-04-15T20:18:31.612Z,97.50
2018-04-15T20:20:59.155Z,97.50
2018-04-15T20:23:26.649Z,97.60
2018-04-15T20:25:54.926Z,98.10
2018-04-15T20:28:22.410Z,98.10
2018-04-15T20:30:49.911Z,98.20
2018-04-15T20:33:17.404Z,98.40
2018-04-15T20:35:44.877Z,98.50
2018-04-15T20:38:12.396Z,98.50
2018-04-15T20:40:40.652Z,98.70
2018-04-15T20:43:08.138Z,98.70
2018-04-15T20:45:36.425Z,99.20
2018-04-15T20:48:03.900Z,99.20
2018-04-15T20:50:31.391Z,99.00
2018-04-15T20:52:58.887Z,99.00
2018-04-15T20:55:26.355Z,99.00
2018-04-15T20:57:53.851Z,98.90
2018-04-15T21:00:21.322Z,98.80
2018-04-15T21:02:48.831Z,99.00
2018-04-15T21:05:16.289Z,98.90
2018-04-15T21:07:43.770Z,99.10
2018-04-15T21:10:11.253Z,99.30
2018-04-15T21:12:38.712Z,99.40
2018-04-15T21:15:06.189Z,99.30
2018-04-15T21:17:33.665Z,99.20
2018-04-15T21:20:01.138Z,99.50
2018-04-15T21:22:28.628Z,99.80
2018-04-15T21:24:56.102Z,99.90
2018-04-15T21:27:23.589Z,99.90
2018-04-15T21:29:51.848Z,99.90
2018-04-15T21:32:19.332Z,99.70
2018-04-15T21:34:46.825Z,99.40
2018-04-15T21:37:14.308Z,99.90
2018-04-15T21:39:41.792Z,99.70
2018-04-15T21:42:10.038Z,99.70
2018-04-15T21:44:37.522Z,99.70
2018-04-15T21:47:05.009Z,99.70
2018-04-15T21:49:32.495Z,99.60
2018-04-15T21:52:00.002Z,99.60
2018-04-15T21:54:28.270Z,99.90
2018-04-15T21:56:56.515Z,99.90
2018-04-15T21:59:24.015Z,99.90
2018-04-15T22:01:51.495Z,99.90
2018-04-15T22:04:18.989Z,99.90
2018-04-15T22:06:46.446Z,99.90
2018-04-15T22:09:13.931Z,99.90
2018-04-15T22:11:54.040Z,99.90
2018-04-15T22:14:21.517Z,99.90
2018-04-15T22:16:49.032Z,99.90
2018-04-15T22:19:16.887Z,99.90
2018-04-15T22:21:44.377Z,99.90
2018-04-15T22:24:11.889Z,99.90
2018-04-15T22:26:40.122Z,99.90
2018-04-15T22:29:07.593Z,99.90
2018-04-15T22:31:35.074Z,99.90
2018-04-15T22:34:03.303Z,99.90
2018-04-15T22:36:30.799Z,99.90
2018-04-15T22:38:58.276Z,99.90
2018-04-15T22:41:25.793Z,99.90
2018-04-15T22:43:53.259Z,99.90
2018-04-15T22:46:20.742Z,99.90
2018-04-15T22:48:48.988Z,99.90
2018-04-15T22:51:16.436Z,99.90
2018-04-15T22:53:43.942Z,99.90
2018-04-15T22:56:11.407Z,99.90
2018-04-15T22:58:44.449Z,99.90
2018-04-15T23:01:11.928Z,99.90
2018-04-15T23:03:40.165Z,99.90
2018-04-15T23:06:07.653Z,99.90
2018-04-15T23:08:35.114Z,99.90
2018-04-15T23:11:02.591Z,99.90
2018-04-15T23:13:30.069Z,99.90
2018-04-15T23:15:59.477Z,99.90
2018-04-15T23:18:26.979Z,99.90
2018-04-15T23:20:54.469Z,99.90
2018-04-15T23:23:21.952Z,99.90
2018-04-15T23:25:49.412Z,99.90
2018-04-15T23:28:16.864Z,99.90
2018-04-15T23:30:44.366Z,99.90
2018-04-15T23:33:11.818Z,99.90
2018-04-15T23:35:39.308Z,99.90
2018-04-15T23:38:06.762Z,99.90
2018-04-15T23:40:34.273Z,99.90
2018-04-15T23:43:01.749Z,99.90
2018-04-15T23:45:29.215Z,99.90
2018-04-15T23:47:56.689Z,99.90
2018-04-15T23:50:24.925Z,99.90
2018-04-15T23:52:52.400Z,99.90
2018-04-15T23:55:19.893Z,99.90
2018-04-15T23:57:47.348Z,99.90
